Time,TemperatureF,DewpointF,PressureIn,WindDirection,WindDirectionDegrees,WindSpeedMPH,WindSpeedGustMPH,Humidity,HourlyPrecipIn,Conditions,Clouds,dailyrainin,SolarRadiationWatts/m^2,SoftwareType,DateUTC
2013-01-14 00:00:00,24.0,14.0,-100.00,WNW,290,7.0,9.0,66,0.00,,,0.00,0.000000,,2013-01-14 05:00:00,
2013-01-14 00:22:00,24.0,14.0,-100.00,WNW,290,7.0,9.0,66,0.00,,,0.00,0.000000,,2013-01-14 05:22:00,
2013-01-14 00:33:00,24.0,14.0,-100.00,WNW,290,7.0,9.0,66,0.00,,,0.00,0.000000,,2013-01-14 05:33:00,
2013-01-14 00:43:00,24.0,14.0,-100.00,WNW,290,7.0,9.0,66,0.00,,,0.00,0.000000,,2013-01-14 05:43:00,
2013-01-14 00:52:00,24.0,14.0,-100.00,WNW,290,7.0,9.0,66,0.00,,,0.00,0.000000,,2013-01-14 05:52:00,
2013-01-14 01:00:00,23.0,14.0,-100.00,WNW,290,8.0,12.0,67,0.00,,,0.00,0.000000,,2013-01-14 06:00:00,
2013-01-14 01:23:00,23.0,14.0,-100.00,WNW,290,8.0,12.0,67,0.00,,,0.00,0.000000,,2013-01-14 06:23:00,
2013-01-14 01:33:00,23.0,14.0,-100.00,WNW,290,8.0,12.0,67,0.00,,,0.00,0.000000,,2013-01-14 06:33:00,
2013-01-14 01:43:00,23.0,14.0,-100.00,WNW,290,8.0,12.0,67,0.00,,,0.00,0.000000,,2013-01-14 06:43:00,
2013-01-14 01:52:00,23.0,14.0,-100.00,WNW,290,8.0,12.0,67,0.00,,,0.00,0.000000,,2013-01-14 06:52:00,
2013-01-14 02:00:00,22.0,10.0,-100.00,WNW,296,7.0,14.0,58,0.00,,,0.00,0.000000,,2013-01-14 07:00:00,
2013-01-14 02:33:00,22.0,10.0,-100.00,WNW,296,7.0,14.0,58,0.00,,,0.00,0.000000,,2013-01-14 07:33:00,
2013-01-14 02:43:00,22.0,10.0,-100.00,WNW,296,7.0,14.0,58,0.00,,,0.00,0.000000,,2013-01-14 07:43:00,
2013-01-14 02:52:00,22.0,10.0,-100.00,WNW,296,7.0,14.0,58,0.00,,,0.00,0.000000,,2013-01-14 07:52:00,
2013-01-14 03:00:00,21.0,8.0,-100.00,WNW,283,8.0,13.0,56,0.00,,,0.00,0.000000,,2013-01-14 08:00:00,
2013-01-14 03:22:00,21.0,8.0,-100.00,WNW,283,8.0,13.0,56,0.00,,,0.00,0.000000,,2013-01-14 08:22:00,
2013-01-14 03:33:00,21.0,8.0,-100.00,WNW,283,8.0,13.0,56,0.00,,,0.00,0.000000,,2013-01-14 08:33:00,
2013-01-14 03:43:00,21.0,8.0,-100.00,WNW,283,8.0,13.0,56,0.00,,,0.00,0.000000,,2013-01-14 08:43:00,
2013-01-14 03:53:00,21.0,8.0,-100.00,WNW,283,8.0,13.0,56,0.00,,,0.00,0.000000,,2013-01-14 08:53:00,
2013-01-14 04:00:00,21.0,6.0,-100.00,WNW,286,7.0,12.0,52,-99.99,,,0.00,0.000000,,2013-01-14 09:00:00,
2013-01-14 04:34:00,21.0,6.0,-100.00,WNW,286,7.0,12.0,52,-99.99,,,0.00,0.000000,,2013-01-14 09:34:00,
2013-01-14 04:43:00,21.0,6.0,-100.00,WNW,286,7.0,12.0,52,-99.99,,,0.00,0.000000,,2013-01-14 09:43:00,
2013-01-14 04:53:00,21.0,6.0,-100.00,WNW,286,7.0,12.0,52,-99.99,,,0.00,0.000000,,2013-01-14 09:53:00,
2013-01-14 05:00:00,20.0,5.0,-100.00,WNW,288,9.0,14.0,51,0.00,,,0.00,0.000000,,2013-01-14 10:00:00,
2013-01-14 05:33:00,20.0,5.0,-100.00,WNW,288,9.0,14.0,51,0.00,,,0.00,0.000000,,2013-01-14 10:33:00,
2013-01-14 05:43:00,20.0,5.0,-100.00,WNW,288,9.0,14.0,51,0.00,,,0.00,0.000000,,2013-01-14 10:43:00,
2013-01-14 05:52:00,20.0,5.0,-100.00,WNW,288,9.0,14.0,51,0.00,,,0.00,0.000000,,2013-01-14 10:52:00,
2013-01-14 06:00:00,20.0,4.0,-100.00,WNW,286,9.0,17.0,49,0.00,,,0.00,0.000000,,2013-01-14 11:00:00,
2013-01-14 06:33:00,20.0,4.0,-100.00,WNW,286,9.0,17.0,49,0.00,,,0.00,0.000000,,2013-01-14 11:33:00,
2013-01-14 06:43:00,20.0,4.0,-100.00,WNW,286,9.0,17.0,49,0.00,,,0.00,0.000000,,2013-01-14 11:43:00,
2013-01-14 06:53:00,20.0,4.0,-100.00,WNW,286,9.0,17.0,49,0.00,,,0.00,0.000000,,2013-01-14 11:53:00,
2013-01-14 07:00:00,19.0,3.0,-100.00,WNW,295,8.0,14.0,49,0.00,,,0.00,0.000000,,2013-01-14 12:00:00,
2013-01-14 07:23:00,19.0,3.0,-100.00,WNW,295,8.0,14.0,49,0.00,,,0.00,0.000000,,2013-01-14 12:23:00,
2013-01-14 07:33:00,19.0,3.0,-100.00,WNW,295,8.0,14.0,49,0.00,,,0.00,0.000000,,2013-01-14 12:33:00,
2013-01-14 07:43:00,19.0,3.0,-100.00,WNW,295,8.0,14.0,49,0.00,,,0.00,0.000000,,2013-01-14 12:43:00,
2013-01-14 07:53:00,19.0,3.0,-100.00,WNW,295,8.0,14.0,49,0.00,,,0.00,0.000000,,2013-01-14 12:53:00,
2013-01-14 08:00:00,19.0,4.0,-100.00,WNW,285,6.0,14.0,52,0.00,,,0.00,0.000000,,2013-01-14 13:00:00,
2013-01-14 08:23:00,19.0,4.0,-100.00,WNW,285,6.0,14.0,52,0.00,,,0.00,0.000000,,2013-01-14 13:23:00,
2013-01-14 08:33:00,19.0,4.0,-100.00,WNW,285,6.0,14.0,52,0.00,,,0.00,0.000000,,2013-01-14 13:33:00,
2013-01-14 08:43:00,19.0,4.0,-100.00,WNW,285,6.0,14.0,52,0.00,,,0.00,0.000000,,2013-01-14 13:43:00,
2013-01-14 08:53:00,19.0,4.0,-100.00,WNW,285,6.0,14.0,52,0.00,,,0.00,0.000000,,2013-01-14 13:53:00,
2013-01-14 09:00:00,19.0,5.0,-100.00,WNW,292,7.0,11.0,54,0.00,,,0.00,0.000000,,2013-01-14 14:00:00,
2013-01-14 09:23:00,19.0,5.0,-100.00,WNW,292,7.0,11.0,54,0.00,,,0.00,0.000000,,2013-01-14 14:23:00,
2013-01-14 09:33:00,19.0,5.0,-100.00,WNW,292,7.0,11.0,54,0.00,,,0.00,0.000000,,2013-01-14 14:33:00,
2013-01-14 09:43:00,19.0,5.0,-100.00,WNW,292,7.0,11.0,54,0.00,,,0.00,0.000000,,2013-01-14 14:43:00,
2013-01-14 09:53:00,19.0,5.0,-100.00,WNW,292,7.0,11.0,54,0.00,,,0.00,0.000000,,2013-01-14 14:53:00,
2013-01-14 10:00:00,18.0,5.0,-100.00,West,275,4.0,12.0,56,0.00,,,0.00,0.000000,,2013-01-14 15:00:00,
2013-01-14 10:23:00,18.0,5.0,-100.00,West,275,4.0,12.0,56,0.00,,,0.00,0.000000,,2013-01-14 15:23:00,
2013-01-14 10:33:00,18.0,5.0,-100.00,West,275,4.0,12.0,56,0.00,,,0.00,0.000000,,2013-01-14 15:33:00,
2013-01-14 10:43:00,18.0,5.0,-100.00,West,275,4.0,12.0,56,0.00,,,0.00,0.000000,,2013-01-14 15:43:00,
2013-01-14 10:53:00,18.0,5.0,-100.00,West,275,4.0,12.0,56,0.00,,,0.00,0.000000,,2013-01-14 15:53:00,
2013-01-14 11:00:00,25.0,9.0,-100.00,West,276,1.0,9.0,49,0.00,,,0.00,66.000000,,2013-01-14 16:00:00,
2013-01-14 11:33:00,25.0,9.0,-100.00,West,276,1.0,9.0,49,0.00,,,0.00,66.000000,,2013-01-14 16:33:00,
2013-01-14 11:43:00,25.0,9.0,-100.00,West,276,1.0,9.0,49,0.00,,,0.00,66.000000,,2013-01-14 16:43:00,
2013-01-14 11:53:00,25.0,9.0,-100.00,West,276,1.0,9.0,49,0.00,,,0.00,66.000000,,2013-01-14 16:53:00,
2013-01-14 12:00:00,29.0,8.0,-100.00,SE,125,1.0,5.0,41,0.00,,,0.00,279.000000,,2013-01-14 17:00:00,
2013-01-14 12:23:00,29.0,8.0,-100.00,SE,125,1.0,5.0,41,0.00,,,0.00,279.000000,,2013-01-14 17:23:00,
2013-01-14 12:33:00,29.0,8.0,-100.00,SE,125,1.0,5.0,41,0.00,,,0.00,279.000000,,2013-01-14 17:33:00,
2013-01-14 12:43:00,29.0,8.0,-100.00,SE,125,1.0,5.0,41,0.00,,,0.00,279.000000,,2013-01-14 17:43:00,
2013-01-14 12:53:00,29.0,8.0,-100.00,SE,125,1.0,5.0,41,0.00,,,0.00,279.000000,,2013-01-14 17:53:00,
2013-01-14 13:00:00,33.0,8.0,-100.00,South,176,0.0,8.0,35,0.00,,,0.00,477.000000,,2013-01-14 18:00:00,
2013-01-14 13:33:00,33.0,8.0,-100.00,South,176,0.0,8.0,35,0.00,,,0.00,477.000000,,2013-01-14 18:33:00,
2013-01-14 13:43:00,33.0,8.0,-100.00,South,176,0.0,8.0,35,0.00,,,0.00,477.000000,,2013-01-14 18:43:00,
2013-01-14 13:53:00,33.0,8.0,-100.00,South,176,0.0,8.0,35,0.00,,,0.00,477.000000,,2013-01-14 18:53:00,
2013-01-14 14:00:00,34.0,9.0,-100.00,SSE,149,3.0,9.0,35,0.00,,,0.00,626.000000,,2013-01-14 19:00:00,
2013-01-14 14:33:00,34.0,9.0,-100.00,SSE,149,3.0,9.0,35,0.00,,,0.00,626.000000,,2013-01-14 19:33:00,
2013-01-14 14:43:00,34.0,9.0,-100.00,SSE,149,3.0,9.0,35,0.00,,,0.00,626.000000,,2013-01-14 19:43:00,
2013-01-14 14:53:00,34.0,9.0,-100.00,SSE,149,3.0,9.0,35,0.00,,,0.00,626.000000,,2013-01-14 19:53:00,
2013-01-14 15:00:00,37.0,6.0,-100.00,NNE,29,1.0,9.0,27,0.00,,,0.00,712.000000,,2013-01-14 20:00:00,
2013-01-14 15:33:00,37.0,6.0,-100.00,NNE,29,1.0,9.0,27,0.00,,,0.00,712.000000,,2013-01-14 20:33:00,
2013-01-14 15:43:00,37.0,6.0,-100.00,NNE,29,1.0,9.0,27,0.00,,,0.00,712.000000,,2013-01-14 20:43:00,
2013-01-14 15:53:00,37.0,6.0,-100.00,NNE,29,1.0,9.0,27,0.00,,,0.00,712.000000,,2013-01-14 20:53:00,
2013-01-14 16:00:00,37.0,3.0,-100.00,ESE,113,4.0,9.0,23,0.00,,,0.00,721.000000,,2013-01-14 21:00:00,
2013-01-14 16:23:00,37.0,3.0,-100.00,ESE,113,4.0,9.0,23,0.00,,,0.00,721.000000,,2013-01-14 21:23:00,
2013-01-14 16:33:00,37.0,3.0,-100.00,ESE,113,4.0,9.0,23,0.00,,,0.00,721.000000,,2013-01-14 21:33:00,
2013-01-14 16:43:00,37.0,3.0,-100.00,ESE,113,4.0,9.0,23,0.00,,,0.00,721.000000,,2013-01-14 21:43:00,
2013-01-14 16:53:00,37.0,3.0,-100.00,ESE,113,4.0,9.0,23,0.00,,,0.00,721.000000,,2013-01-14 21:53:00,
2013-01-14 17:00:00,38.0,-1.0,-100.00,East,99,3.0,8.0,19,0.00,,,0.00,652.000000,,2013-01-14 22:00:00,
2013-01-14 17:23:00,38.0,-1.0,-100.00,East,99,3.0,8.0,19,0.00,,,0.00,652.000000,,2013-01-14 22:23:00,
2013-01-14 17:33:00,38.0,-1.0,-100.00,East,99,3.0,8.0,19,0.00,,,0.00,652.000000,,2013-01-14 22:33:00,
2013-01-14 17:43:00,38.0,-1.0,-100.00,East,99,3.0,8.0,19,0.00,,,0.00,652.000000,,2013-01-14 22:43:00,
2013-01-14 17:52:00,38.0,-1.0,-100.00,East,99,3.0,8.0,19,0.00,,,0.00,652.000000,,2013-01-14 22:52:00,
2013-01-14 18:00:00,39.0,0.0,-100.00,SE,134,3.0,8.0,19,0.00,,,0.00,518.000000,,2013-01-14 23:00:00,
2013-01-14 18:33:00,39.0,0.0,-100.00,SE,134,3.0,8.0,19,0.00,,,0.00,518.000000,,2013-01-14 23:33:00,
2013-01-14 18:43:00,39.0,0.0,-100.00,SE,134,3.0,8.0,19,0.00,,,0.00,518.000000,,2013-01-14 23:43:00,
2013-01-14 18:53:00,39.0,0.0,-100.00,SE,134,3.0,8.0,19,0.00,,,0.00,518.000000,,2013-01-14 23:53:00,
2013-01-14 19:23:00,39.0,0.0,-100.00,WSW,237,0.0,6.0,19,0.00,,,0.00,308.000000,,2013-01-15 00:23:00,
2013-01-14 19:33:00,39.0,0.0,-100.00,WSW,237,0.0,6.0,19,0.00,,,0.00,308.000000,,2013-01-15 00:33:00,
2013-01-14 20:00:00,31.0,10.0,-100.00,WNW,296,6.0,9.0,40,0.00,,,0.00,16.000000,,2013-01-15 01:00:00,
2013-01-14 20:33:00,31.0,10.0,-100.00,WNW,296,6.0,9.0,40,0.00,,,0.00,16.000000,,2013-01-15 01:33:00,
2013-01-14 20:43:00,31.0,10.0,-100.00,WNW,296,6.0,9.0,40,0.00,,,0.00,16.000000,,2013-01-15 01:43:00,
2013-01-14 20:52:00,31.0,10.0,-100.00,WNW,296,6.0,9.0,40,0.00,,,0.00,16.000000,,2013-01-15 01:52:00,
2013-01-14 21:00:00,30.0,11.0,-100.00,WNW,295,7.0,10.0,45,0.00,,,0.00,1.000000,,2013-01-15 02:00:00,
2013-01-14 21:33:00,30.0,11.0,-100.00,WNW,295,7.0,10.0,45,0.00,,,0.00,1.000000,,2013-01-15 02:33:00,
2013-01-14 21:42:00,30.0,11.0,-100.00,WNW,295,7.0,10.0,45,0.00,,,0.00,1.000000,,2013-01-15 02:42:00,
2013-01-14 21:53:00,30.0,11.0,-100.00,WNW,295,7.0,10.0,45,0.00,,,0.00,1.000000,,2013-01-15 02:53:00,
2013-01-14 22:00:00,28.0,11.0,-100.00,WNW,291,7.0,12.0,49,0.00,,,0.00,0.000000,,2013-01-15 03:00:00,
2013-01-14 22:33:00,28.0,11.0,-100.00,WNW,291,7.0,12.0,49,0.00,,,0.00,0.000000,,2013-01-15 03:33:00,
2013-01-14 22:42:00,28.0,11.0,-100.00,WNW,291,7.0,12.0,49,0.00,,,0.00,0.000000,,2013-01-15 03:42:00,
2013-01-14 22:52:00,28.0,11.0,-100.00,WNW,291,7.0,12.0,49,0.00,,,0.00,0.000000,,2013-01-15 03:52:00,
2013-01-14 23:00:00,27.0,11.0,-100.00,WNW,286,6.0,12.0,50,0.00,,,0.00,0.000000,,2013-01-15 04:00:00,
2013-01-14 23:33:00,27.0,11.0,-100.00,WNW,286,6.0,12.0,50,0.00,,,0.00,0.000000,,2013-01-15 04:33:00,
2013-01-14 23:42:00,27.0,11.0,-100.00,WNW,286,6.0,12.0,50,0.00,,,0.00,0.000000,,2013-01-15 04:42:00,
2013-01-14 23:52:00,27.0,11.0,-100.00,WNW,286,6.0,12.0,50,0.00,,,0.00,0.000000,,2013-01-15 04:52:00,